createdAt,value
2023-04-29T00:00:04.638Z,25.3049
2023-04-29T00:01:07.834Z,25.8237
2023-04-29T00:02:10.948Z,24.8355
2023-04-29T00:03:14.349Z,27.1597
2023-04-29T00:04:14.563Z,25.1362
2023-04-29T00:05:14.926Z,26.0952
2023-04-29T00:06:15.460Z,27.2754
2023-04-29T00:07:16.517Z,28.6878
2023-04-29T00:08:19.635Z,24.6619
2023-04-29T00:09:22.761Z,26.3498
2023-04-29T00:10:25.857Z,27.6341
2023-04-29T00:11:29.048Z,27.5578
2023-04-29T00:12:32.198Z,27.3456
2023-04-29T00:13:35.257Z,27.2112
2023-04-29T00:14:38.366Z,25.8979
2023-04-29T00:15:41.501Z,25.1272
2023-04-29T00:16:44.647Z,25.8620
2023-04-29T00:17:47.729Z,27.4749
2023-04-29T00:18:50.824Z,26.8813
2023-04-29T00:19:54.286Z,29.0427
2023-04-29T00:20:54.419Z,25.1002
2023-04-29T00:21:56.333Z,25.5181
2023-04-29T00:22:56.249Z,24.6858
2023-04-29T00:23:59.340Z,24.8678
2023-04-29T00:25:02.451Z,22.8559
2023-04-29T00:26:05.584Z,22.8979
2023-04-29T00:27:08.756Z,24.4466
2023-04-29T00:28:11.873Z,23.7825
2023-04-29T00:29:14.973Z,22.7586
2023-04-29T00:30:18.059Z,22.3450
2023-04-29T00:31:21.218Z,21.3733
2023-04-29T00:32:24.299Z,21.2888
2023-04-29T00:33:27.461Z,22.8090
2023-04-29T00:34:27.363Z,23.1276
2023-04-29T00:35:30.473Z,24.2341
2023-04-29T00:36:33.594Z,27.0632
2023-04-29T00:37:36.686Z,27.3548
2023-04-29T00:38:39.943Z,23.2009
2023-04-29T00:39:39.832Z,25.7804
2023-04-29T00:40:42.954Z,23.8538
2023-04-29T00:41:46.223Z,25.9031
2023-04-29T00:42:49.293Z,26.5376
2023-04-29T00:43:52.427Z,24.7202
2023-04-29T00:44:55.539Z,24.9964
2023-04-29T00:45:58.659Z,23.2960
2023-04-29T00:47:01.762Z,20.7618
2023-04-29T00:48:05.265Z,20.8410
2023-04-29T00:49:05.743Z,23.4012
2023-04-29T00:50:05.628Z,20.8152
2023-04-29T00:51:08.719Z,23.1370
2023-04-29T00:52:11.809Z,23.4677
2023-04-29T00:53:14.995Z,21.4536
2023-04-29T00:54:18.119Z,22.3638
2023-04-29T00:55:21.217Z,21.1814
2023-04-29T00:56:24.382Z,20.3348
2023-04-29T00:57:27.441Z,19.9507
2023-04-29T00:58:30.692Z,21.6404
2023-04-29T00:59:30.580Z,18.5106
2023-04-29T01:00:33.705Z,18.2701
2023-04-29T01:01:37.171Z,18.5798
2023-04-29T01:02:37.210Z,18.3069
2023-04-29T01:03:37.335Z,19.9607
2023-04-29T01:04:37.374Z,17.6455
2023-04-29T01:05:40.526Z,18.7783
2023-04-29T01:06:43.626Z,16.8932
2023-04-29T01:07:46.749Z,16.7803
2023-04-29T01:08:49.853Z,18.3616
2023-04-29T01:09:53.263Z,20.1763
2023-04-29T01:10:53.317Z,17.5960
2023-04-29T01:11:56.392Z,20.0208
2023-04-29T01:12:59.518Z,16.5155
2023-04-29T01:14:02.619Z,17.6300
2023-04-29T01:15:05.725Z,17.6797
2023-04-29T01:16:09.081Z,17.6946
2023-04-29T01:17:08.988Z,18.3442
2023-04-29T01:18:12.104Z,15.8330
2023-04-29T01:19:15.183Z,15.4581
2023-04-29T01:20:18.264Z,15.7569
2023-04-29T01:21:21.382Z,18.0282
2023-04-29T01:22:24.525Z,17.6570
2023-04-29T01:23:27.634Z,17.5936
2023-04-29T01:24:30.772Z,17.4196
2023-04-29T01:25:33.897Z,13.8186
2023-04-29T01:26:37.010Z,13.6221
2023-04-29T01:27:40.168Z,15.6820
2023-04-29T01:28:43.378Z,15.6178
2023-04-29T01:29:46.455Z,15.3390
2023-04-29T01:30:49.557Z,14.4460
2023-04-29T01:31:52.794Z,14.7411
2023-04-29T01:32:52.783Z,11.3022
2023-04-29T01:33:55.976Z,13.6375
2023-04-29T01:34:59.150Z,12.9764
2023-04-29T01:35:59.086Z,11.4548
2023-04-29T01:37:02.183Z,10.8551
2023-04-29T01:38:05.349Z,12.3586
2023-04-29T01:39:08.590Z,12.7066
2023-04-29T01:40:08.508Z,10.9659
2023-04-29T01:41:11.623Z,10.9781
2023-04-29T01:42:14.735Z,9.7780
2023-04-29T01:43:17.874Z,9.8706
2023-04-29T01:44:17.881Z,10.4170
2023-04-29T01:45:20.997Z,8.2489
2023-04-29T01:46:24.155Z,11.5321
2023-04-29T01:47:27.331Z,9.0836
2023-04-29T01:48:30.467Z,9.9932
2023-04-29T01:50:48.303Z,9.6841
2023-04-29T01:50:48.303Z,9.8124
2023-04-29T01:51:48.214Z,11.3977
2023-04-29T01:52:51.379Z,11.5324
2023-04-29T01:53:51.407Z,9.1887
2023-04-29T01:54:51.337Z,8.4968
2023-04-29T01:55:54.576Z,9.6697
2023-04-29T01:56:54.477Z,9.8044
2023-04-29T01:57:57.625Z,10.7536
2023-04-29T01:59:00.807Z,9.8372
2023-04-29T02:00:00.743Z,10.0642
2023-04-29T02:01:03.976Z,8.6834
2023-04-29T02:02:03.955Z,8.4625
2023-04-29T02:03:03.993Z,9.2674
2023-04-29T02:04:04.098Z,9.0839
2023-04-29T02:05:07.200Z,8.7474
2023-04-29T02:06:10.337Z,10.2398
2023-04-29T02:07:13.508Z,10.2254
2023-04-29T02:08:16.654Z,10.2596
2023-04-29T02:09:19.904Z,8.8514
2023-04-29T02:10:19.829Z,7.9552
2023-04-29T02:11:23.162Z,8.6374
2023-04-29T02:12:23.079Z,9.0395
2023-04-29T02:13:23.469Z,8.2296
2023-04-29T02:14:23.473Z,7.8771
2023-04-29T02:15:23.509Z,8.1018
2023-04-29T02:16:26.682Z,8.8545
2023-04-29T02:17:29.771Z,8.5070
2023-04-29T02:18:33.013Z,8.4908
2023-04-29T02:19:33.074Z,8.6209
2023-04-29T02:20:33.076Z,7.4482
2023-04-29T02:21:33.060Z,6.8281
2023-04-29T02:22:36.278Z,6.7193
2023-04-29T02:23:36.245Z,7.2657
2023-04-29T02:24:39.470Z,8.1991
2023-04-29T02:25:39.505Z,8.2921
2023-04-29T02:26:39.445Z,7.8340
2023-04-29T02:27:42.687Z,6.7729
2023-04-29T02:28:45.803Z,6.5051
2023-04-29T02:29:49.014Z,7.3518
2023-04-29T02:30:48.972Z,7.9208
2023-04-29T02:31:52.143Z,8.8284
2023-04-29T02:32:55.352Z,7.9794
2023-04-29T02:33:55.277Z,6.6204
2023-04-29T02:34:58.423Z,7.8088
2023-04-29T02:36:01.613Z,6.6600
2023-04-29T02:37:01.559Z,8.1201
2023-04-29T02:38:04.756Z,8.3577
2023-04-29T02:39:04.688Z,6.7546
2023-04-29T02:40:07.838Z,8.6012
2023-04-29T02:41:11.021Z,9.7677
2023-04-29T02:42:10.976Z,7.2859
2023-04-29T02:43:14.178Z,8.6356
2023-04-29T02:44:14.117Z,7.9157
2023-04-29T02:45:17.267Z,7.1212
2023-04-29T02:46:20.449Z,6.8667
2023-04-29T02:47:23.582Z,8.0851
2023-04-29T02:48:26.782Z,6.8041
2023-04-29T02:49:26.809Z,8.4297
2023-04-29T02:50:26.768Z,7.0974
2023-04-29T02:51:29.918Z,6.6586
2023-04-29T02:52:33.034Z,7.1007
2023-04-29T02:53:36.252Z,8.1768
2023-04-29T02:54:36.217Z,7.1240
2023-04-29T02:55:39.396Z,6.8267
2023-04-29T02:56:42.557Z,6.9984
2023-04-29T02:57:45.778Z,7.0826
2023-04-29T02:58:45.747Z,6.2789
2023-04-29T02:59:48.928Z,7.7286
2023-04-29T03:00:52.131Z,5.5685
2023-04-29T03:01:53.329Z,7.0646
2023-04-29T03:02:53.388Z,7.4485
2023-04-29T03:03:53.633Z,6.1326
2023-04-29T03:04:54.566Z,7.3412
2023-04-29T03:05:57.811Z,6.8437
2023-04-29T03:06:57.723Z,5.2420
2023-04-29T03:08:00.895Z,5.5678
2023-04-29T03:09:04.040Z,7.8286
2023-04-29T03:10:07.232Z,7.1165
2023-04-29T03:11:07.197Z,6.0579
2023-04-29T03:12:10.415Z,5.8519
2023-04-29T03:13:10.424Z,6.7015
2023-04-29T03:14:10.365Z,7.0272
2023-04-29T03:15:11.332Z,7.4316
2023-04-29T03:16:14.513Z,6.0109
2023-04-29T03:17:17.697Z,6.7515
2023-04-29T03:18:17.734Z,7.2188
2023-04-29T03:19:17.705Z,6.1706
2023-04-29T03:20:20.881Z,6.7684
2023-04-29T03:21:20.893Z,7.1347
2023-04-29T03:22:24.073Z,5.8878
2023-04-29T03:23:27.235Z,7.7945
2023-04-29T03:24:27.285Z,6.6506
2023-04-29T03:25:30.481Z,6.9432
2023-04-29T03:26:30.559Z,6.1496
2023-04-29T03:27:30.465Z,7.4662
2023-04-29T03:28:34.428Z,6.8072
2023-04-29T03:29:34.335Z,6.5468
2023-04-29T03:30:37.477Z,9.0106
2023-04-29T03:31:40.694Z,6.6906
2023-04-29T03:32:40.716Z,6.3187
2023-04-29T03:33:40.675Z,6.6284
2023-04-29T03:34:44.011Z,6.0398
2023-04-29T03:35:44.019Z,6.9501
2023-04-29T03:36:43.997Z,7.2347
2023-04-29T03:37:43.966Z,6.6681
2023-04-29T03:38:47.162Z,7.7188
2023-04-29T03:39:47.204Z,5.3487
2023-04-29T03:40:47.107Z,8.2622
2023-04-29T03:42:11.357Z,5.9549
2023-04-29T03:42:52.119Z,7.0476
2023-04-29T03:43:52.133Z,7.1180
2023-04-29T03:44:52.091Z,5.6874
2023-04-29T03:45:55.311Z,5.9086
2023-04-29T03:46:55.343Z,9.0764
2023-04-29T03:47:55.365Z,7.2051
2023-04-29T03:48:58.513Z,5.7601
2023-04-29T03:50:01.737Z,6.6849
2023-04-29T03:51:02.687Z,7.4252
2023-04-29T03:52:05.846Z,7.0387
2023-04-29T03:53:05.788Z,7.0293
2023-04-29T03:54:08.952Z,5.8443
2023-04-29T03:55:12.124Z,7.2781
2023-04-29T03:56:16.944Z,7.6238
2023-04-29T03:57:17.372Z,6.5767
2023-04-29T03:58:17.443Z,8.0339
2023-04-29T03:59:17.734Z,9.2155
2023-04-29T04:00:17.674Z,8.0984
2023-04-29T04:01:17.668Z,6.6860
2023-04-29T04:02:20.935Z,7.1201
2023-04-29T04:03:21.200Z,6.9310
2023-04-29T04:04:21.382Z,6.4763
2023-04-29T04:05:21.416Z,7.0413
2023-04-29T04:06:24.562Z,6.0945
2023-04-29T04:07:24.597Z,6.3042
2023-04-29T04:08:27.829Z,7.8164
2023-04-29T04:09:27.766Z,6.5520
2023-04-29T04:10:30.931Z,7.1973
2023-04-29T04:11:34.063Z,7.8544
2023-04-29T04:12:37.269Z,7.3456
2023-04-29T04:13:37.309Z,6.2060
2023-04-29T04:14:37.202Z,7.2820
2023-04-29T04:15:40.339Z,7.0766
2023-04-29T04:16:43.582Z,6.5281
2023-04-29T04:17:44.561Z,8.0845
2023-04-29T04:18:47.723Z,6.8408
2023-04-29T04:19:51.046Z,6.9576
2023-04-29T04:20:52.161Z,6.7611
2023-04-29T04:21:55.282Z,7.6359
2023-04-29T04:22:58.379Z,6.5955
2023-04-29T04:24:01.631Z,8.7349
2023-04-29T04:25:01.862Z,6.7809
2023-04-29T04:26:01.870Z,6.6069
2023-04-29T04:27:01.995Z,6.4988
2023-04-29T04:28:01.899Z,7.3246
2023-04-29T04:29:05.024Z,7.1164
2023-04-29T04:30:08.325Z,7.3938
2023-04-29T04:31:08.367Z,5.7177
2023-04-29T04:32:08.303Z,7.3330
2023-04-29T04:33:08.289Z,7.6595
2023-04-29T04:34:12.137Z,7.3724
2023-04-29T04:35:12.126Z,7.8995
2023-04-29T04:36:15.300Z,7.3485
2023-04-29T04:37:15.361Z,7.5734
2023-04-29T04:38:15.298Z,7.1573
2023-04-29T04:39:18.449Z,5.9682
2023-04-29T04:40:21.595Z,8.1043
2023-04-29T04:41:25.077Z,8.8331
2023-04-29T04:42:25.077Z,7.4450
2023-04-29T04:43:28.236Z,7.6341
2023-04-29T04:44:31.462Z,7.2865
2023-04-29T04:45:31.366Z,7.1131
2023-04-29T04:46:34.554Z,7.3958
2023-04-29T04:47:37.744Z,6.8705
2023-04-29T04:48:40.854Z,6.3970
2023-04-29T04:49:44.029Z,8.5491
2023-04-29T04:50:47.184Z,7.0756
2023-04-29T04:51:50.328Z,6.5821
2023-04-29T04:52:53.521Z,7.1892
2023-04-29T04:53:56.616Z,9.2787
2023-04-29T04:54:59.757Z,6.8215
2023-04-29T04:56:02.897Z,7.6100
2023-04-29T04:57:06.077Z,6.7538
2023-04-29T04:58:06.039Z,8.1093
2023-04-29T04:59:09.454Z,7.9870
2023-04-29T05:00:09.358Z,7.5812
2023-04-29T05:01:12.550Z,8.5212
2023-04-29T05:02:15.746Z,7.8151
2023-04-29T05:03:19.028Z,7.4404
2023-04-29T05:04:19.956Z,8.0177
2023-04-29T05:05:20.042Z,8.0195
2023-04-29T05:06:19.961Z,8.2837
2023-04-29T05:07:23.727Z,9.2759
2023-04-29T05:08:23.668Z,9.0297
2023-04-29T05:09:26.772Z,10.0430
2023-04-29T05:10:29.923Z,8.0821
2023-04-29T05:11:33.104Z,7.4682
2023-04-29T05:12:33.065Z,7.9659
2023-04-29T05:13:36.233Z,7.7012
2023-04-29T05:14:36.196Z,7.5965
2023-04-29T05:15:39.336Z,7.4940
2023-04-29T05:16:42.834Z,9.3749
2023-04-29T05:17:42.861Z,9.2228
2023-04-29T05:18:45.979Z,8.1151
2023-04-29T05:19:49.305Z,8.4758
2023-04-29T05:20:49.240Z,9.2772
2023-04-29T05:21:52.433Z,7.6562
2023-04-29T05:22:52.379Z,8.7049
2023-04-29T05:23:55.502Z,7.5637
2023-04-29T05:24:58.651Z,7.3814
2023-04-29T05:26:01.861Z,7.5074
2023-04-29T05:27:01.805Z,8.7583
2023-04-29T05:28:05.020Z,9.6938
2023-04-29T05:29:08.257Z,9.1859
2023-04-29T05:30:08.230Z,9.8622
2023-04-29T05:31:11.569Z,7.3770
2023-04-29T05:32:11.544Z,8.2566
2023-04-29T05:33:16.053Z,9.2728
2023-04-29T05:34:15.999Z,8.6010
2023-04-29T05:35:16.388Z,7.4938
2023-04-29T05:36:16.289Z,7.5740
2023-04-29T05:37:19.482Z,8.2145
2023-04-29T05:38:19.483Z,7.2071
2023-04-29T05:39:22.699Z,8.2069
2023-04-29T05:40:22.678Z,8.5793
2023-04-29T05:41:25.832Z,9.6606
2023-04-29T05:42:25.839Z,8.8356
2023-04-29T05:43:29.058Z,8.5456
2023-04-29T05:44:29.003Z,7.5908
2023-04-29T05:45:29.815Z,8.7994
2023-04-29T05:46:30.287Z,8.0625
2023-04-29T05:47:30.528Z,8.5982
2023-04-29T05:48:30.576Z,8.2653
2023-04-29T05:49:33.755Z,9.4362
2023-04-29T05:50:36.946Z,7.1498
2023-04-29T05:51:37.429Z,7.2096
2023-04-29T05:52:37.360Z,8.3204
2023-04-29T05:53:40.570Z,8.0825
2023-04-29T05:54:40.570Z,8.2889
2023-04-29T05:55:40.557Z,7.2649
2023-04-29T05:56:43.739Z,6.1859
2023-04-29T05:57:43.869Z,6.9098
2023-04-29T05:58:44.264Z,7.5909
2023-04-29T05:59:44.189Z,9.1997
2023-04-29T06:00:44.162Z,7.5356
2023-04-29T06:01:47.596Z,7.6003
2023-04-29T06:02:58.280Z,7.3484
2023-04-29T06:03:50.639Z,8.6234
2023-04-29T06:04:51.081Z,8.9283
2023-04-29T06:05:51.226Z,9.0482
2023-04-29T06:06:53.473Z,8.9917
2023-04-29T06:07:53.370Z,9.3373
2023-04-29T06:08:56.527Z,10.0357
2023-04-29T06:09:59.710Z,9.0076
2023-04-29T06:11:02.898Z,8.3924
2023-04-29T06:12:06.052Z,10.2293
2023-04-29T06:13:09.266Z,8.4297
2023-04-29T06:14:12.410Z,8.4635
2023-04-29T06:15:15.550Z,9.2062
2023-04-29T06:16:18.838Z,10.1914
2023-04-29T06:17:18.775Z,9.1308
2023-04-29T06:18:21.907Z,10.0265
2023-04-29T06:19:25.188Z,11.2394
2023-04-29T06:20:25.086Z,12.6319
2023-04-29T06:21:28.330Z,10.9872
2023-04-29T06:22:28.285Z,10.7882
2023-04-29T06:23:31.443Z,10.7272
2023-04-29T06:24:34.652Z,12.8524
2023-04-29T06:25:37.741Z,10.1486
2023-04-29T06:26:40.944Z,11.5165
2023-04-29T06:27:44.061Z,10.9329
2023-04-29T06:28:47.226Z,15.0980
2023-04-29T06:29:50.381Z,13.4084
2023-04-29T06:30:53.498Z,12.8163
2023-04-29T06:31:56.665Z,12.5625
2023-04-29T06:32:59.825Z,13.1998
2023-04-29T06:34:02.979Z,12.9807
2023-04-29T06:35:06.116Z,10.6691
2023-04-29T06:36:09.240Z,12.4851
2023-04-29T06:37:12.382Z,12.6026
2023-04-29T06:38:15.592Z,12.7941
2023-04-29T06:39:15.634Z,11.1272
2023-04-29T06:40:15.622Z,9.9471
2023-04-29T06:41:18.748Z,9.9838
2023-04-29T06:42:18.738Z,9.4621
2023-04-29T06:43:21.874Z,8.7012
2023-04-29T06:44:25.230Z,10.1302
2023-04-29T06:45:25.368Z,11.6716
2023-04-29T06:46:25.345Z,10.5825
2023-04-29T06:47:28.583Z,9.3025
2023-04-29T06:48:28.494Z,11.1041
2023-04-29T06:49:31.683Z,11.7801
2023-04-29T06:50:31.711Z,8.5700
2023-04-29T06:51:34.985Z,9.9831
2023-04-29T06:52:34.996Z,11.1062
2023-04-29T06:53:38.141Z,8.9219
2023-04-29T06:54:38.099Z,8.8445
2023-04-29T06:55:41.252Z,12.9617
2023-04-29T06:56:44.402Z,14.9293
2023-04-29T06:57:47.553Z,11.5543
2023-04-29T06:58:50.701Z,12.4619
2023-04-29T06:59:54.013Z,13.1068
2023-04-29T07:00:54.267Z,10.6409
2023-04-29T07:01:54.310Z,10.1376
2023-04-29T07:02:54.362Z,8.5162
2023-04-29T07:03:54.408Z,7.9237
2023-04-29T07:04:54.525Z,8.9803
2023-04-29T07:05:54.665Z,8.5846
2023-04-29T07:06:54.625Z,8.9361
2023-04-29T07:07:57.794Z,9.6877
2023-04-29T07:09:00.974Z,8.7838
2023-04-29T07:10:04.154Z,8.9614
2023-04-29T07:11:07.307Z,8.4118
2023-04-29T07:12:10.541Z,7.8153
2023-04-29T07:13:13.663Z,10.6083
2023-04-29T07:14:16.844Z,9.3684
2023-04-29T07:15:20.002Z,9.6997
2023-04-29T07:16:23.176Z,10.2244
2023-04-29T07:17:26.414Z,8.1899
2023-04-29T07:18:26.324Z,10.9345
2023-04-29T07:19:29.500Z,11.0403
2023-04-29T07:20:29.442Z,9.9328
2023-04-29T07:21:32.643Z,9.8631
2023-04-29T07:22:32.589Z,10.2213
2023-04-29T07:23:35.769Z,9.8966
2023-04-29T07:24:39.236Z,9.3415
2023-04-29T07:25:39.172Z,9.2922
2023-04-29T07:26:42.368Z,7.5788
2023-04-29T07:27:42.356Z,6.7496
2023-04-29T07:28:45.553Z,6.1807
2023-04-29T07:29:45.515Z,6.6440
2023-04-29T07:30:48.741Z,8.0418
2023-04-29T07:31:48.719Z,7.6318
2023-04-29T07:32:48.706Z,7.1458
2023-04-29T07:33:51.856Z,7.8800
2023-04-29T07:34:55.328Z,8.7730
2023-04-29T07:35:55.393Z,6.5138
2023-04-29T07:36:58.592Z,6.7832
2023-04-29T07:38:01.735Z,5.9047
2023-04-29T07:39:04.972Z,5.7274
2023-04-29T07:40:04.911Z,6.2777
2023-04-29T07:41:08.081Z,5.9035
2023-04-29T07:42:08.094Z,6.8016
2023-04-29T07:43:09.437Z,6.9189
2023-04-29T07:44:10.462Z,6.4099
2023-04-29T07:45:10.431Z,5.7053
2023-04-29T07:46:13.632Z,7.6027
2023-04-29T07:47:16.805Z,10.5550
2023-04-29T07:48:16.808Z,8.6708
2023-04-29T07:49:19.999Z,9.1432
2023-04-29T07:50:19.975Z,8.3707
2023-04-29T07:51:23.181Z,9.4736
2023-04-29T07:52:26.313Z,8.7623
2023-04-29T07:53:29.593Z,7.8812
2023-04-29T07:54:29.464Z,10.4879
2023-04-29T07:55:32.688Z,10.0721
2023-04-29T07:56:35.845Z,10.2727
2023-04-29T07:57:38.972Z,8.5645
2023-04-29T07:58:42.140Z,8.9683
2023-04-29T07:59:45.360Z,8.2521
2023-04-29T08:00:48.515Z,7.4660
2023-04-29T08:01:51.718Z,8.8217
2023-04-29T08:02:51.794Z,8.8456
2023-04-29T08:03:51.921Z,7.4427
2023-04-29T08:04:52.481Z,8.1402
2023-04-29T08:05:52.663Z,8.2233
2023-04-29T08:06:55.768Z,7.9790
2023-04-29T08:07:58.940Z,8.5662
2023-04-29T08:09:03.230Z,8.5640
2023-04-29T08:10:03.313Z,8.1554
2023-04-29T08:11:06.756Z,8.0215
2023-04-29T08:12:07.616Z,7.6834
2023-04-29T08:13:08.630Z,6.9131
2023-04-29T08:14:11.817Z,6.8324
2023-04-29T08:15:14.971Z,7.8630
2023-04-29T08:16:18.233Z,8.8029
2023-04-29T08:17:18.219Z,10.0595
2023-04-29T08:18:18.196Z,7.7308
2023-04-29T08:19:21.415Z,8.6916
2023-04-29T08:20:21.458Z,7.6651
2023-04-29T08:21:21.395Z,7.5874
2023-04-29T08:22:24.561Z,8.0470
2023-04-29T08:23:24.571Z,8.2359
2023-04-29T08:24:27.825Z,10.8809
2023-04-29T08:25:27.787Z,8.2252
2023-04-29T08:26:30.959Z,8.5227
2023-04-29T08:27:34.141Z,9.1319
2023-04-29T08:28:37.296Z,7.5846
2023-04-29T08:29:37.330Z,9.0284
2023-04-29T08:30:40.458Z,9.8745
2023-04-29T08:31:43.624Z,10.1335
2023-04-29T08:32:46.816Z,8.3354
2023-04-29T08:33:49.925Z,9.8846
2023-04-29T08:34:53.372Z,9.9800
2023-04-29T08:35:53.374Z,10.7308
2023-04-29T08:36:56.536Z,11.9493
2023-04-29T08:37:59.664Z,11.1150
2023-04-29T08:39:02.817Z,12.0171
2023-04-29T08:40:05.997Z,11.6652
2023-04-29T08:41:09.094Z,11.7520
2023-04-29T08:42:12.243Z,15.7232
2023-04-29T08:43:15.357Z,13.7737
2023-04-29T08:44:18.487Z,14.4663
2023-04-29T08:45:21.728Z,14.0491
2023-04-29T08:46:24.802Z,13.4492
2023-04-29T08:47:28.003Z,11.4393
2023-04-29T08:48:31.183Z,12.4106
2023-04-29T08:49:31.138Z,14.4318
2023-04-29T08:50:34.272Z,13.7034
2023-04-29T08:51:37.445Z,16.4136
2023-04-29T08:52:40.557Z,13.6472
2023-04-29T08:53:43.686Z,13.5924
2023-04-29T08:54:46.837Z,15.3753
2023-04-29T08:55:49.964Z,17.7390
2023-04-29T08:56:53.108Z,16.7084
2023-04-29T08:57:56.244Z,14.2493
2023-04-29T08:58:59.345Z,15.3918
2023-04-29T09:00:02.595Z,14.5667
2023-04-29T09:01:05.717Z,17.1355
2023-04-29T09:02:08.834Z,15.8563
2023-04-29T09:03:12.039Z,17.2534
2023-04-29T09:04:12.064Z,16.4401
2023-04-29T09:05:12.979Z,16.9355
2023-04-29T09:06:16.100Z,17.1732
2023-04-29T09:07:19.244Z,17.1129
2023-04-29T09:08:22.350Z,17.3917
2023-04-29T09:09:25.474Z,16.5978
2023-04-29T09:10:28.602Z,15.5941
2023-04-29T09:11:31.813Z,16.7228
2023-04-29T09:12:34.910Z,16.2553
2023-04-29T09:13:38.036Z,15.3818
2023-04-29T09:14:41.155Z,17.3834
2023-04-29T09:15:44.273Z,17.6487
2023-04-29T09:16:47.625Z,16.8307
2023-04-29T09:17:47.724Z,15.8540
2023-04-29T09:18:47.634Z,18.9957
2023-04-29T09:19:50.745Z,16.4228
2023-04-29T09:20:53.853Z,15.0952
2023-04-29T09:21:57.022Z,13.3902
2023-04-29T09:23:00.202Z,14.0167
2023-04-29T09:24:03.329Z,12.6171
2023-04-29T09:25:06.461Z,13.9116
2023-04-29T09:26:09.621Z,11.5624
2023-04-29T09:27:09.586Z,11.5542
2023-04-29T09:28:12.745Z,9.8706
2023-04-29T09:29:15.887Z,9.5493
2023-04-29T09:30:19.013Z,11.9930
2023-04-29T09:31:22.161Z,11.9223
2023-04-29T09:32:25.319Z,12.1000
2023-04-29T09:33:28.421Z,12.7298
2023-04-29T09:34:31.521Z,11.0317
2023-04-29T09:35:34.776Z,11.1907
2023-04-29T09:36:37.869Z,11.6987
2023-04-29T09:37:41.035Z,13.9652
2023-04-29T09:38:44.736Z,13.8646
2023-04-29T09:39:44.629Z,13.5883
2023-04-29T09:40:59.029Z,13.8663
2023-04-29T09:41:50.362Z,13.4596
2023-04-29T09:42:53.495Z,13.5135
2023-04-29T09:43:56.668Z,13.8407
2023-04-29T09:44:59.805Z,14.0756
2023-04-29T09:46:02.962Z,13.5361
2023-04-29T09:47:06.101Z,14.7519
2023-04-29T09:48:09.219Z,13.4808
2023-04-29T09:49:12.349Z,14.4587
2023-04-29T09:50:15.490Z,13.8352
2023-04-29T09:51:18.616Z,12.2262
2023-04-29T09:52:21.786Z,12.3579
2023-04-29T09:53:24.957Z,12.2609
2023-04-29T09:54:28.087Z,12.2799
2023-04-29T09:55:31.211Z,10.0651
2023-04-29T09:56:34.332Z,12.6646
2023-04-29T09:57:37.492Z,13.8744
2023-04-29T09:58:40.638Z,13.1724
2023-04-29T09:59:43.966Z,13.8498
2023-04-29T10:00:43.863Z,13.6473
2023-04-29T10:01:47.071Z,13.6735
2023-04-29T10:02:50.302Z,16.1331
2023-04-29T10:03:50.375Z,12.8964
2023-04-29T10:04:50.491Z,14.0162
2023-04-29T10:05:50.404Z,12.4828
2023-04-29T10:06:53.533Z,13.4137
2023-04-29T10:07:56.695Z,12.8475
2023-04-29T10:08:59.828Z,13.0749
2023-04-29T10:10:02.977Z,14.5982
2023-04-29T10:11:06.327Z,13.6106
2023-04-29T10:12:06.218Z,15.0690
2023-04-29T10:13:09.330Z,12.4829
2023-04-29T10:14:12.510Z,13.6244
2023-04-29T10:15:15.632Z,12.0809
2023-04-29T10:16:18.867Z,13.3702
2023-04-29T10:17:18.798Z,12.8205
2023-04-29T10:18:21.915Z,12.0051
2023-04-29T10:19:25.094Z,13.3086
2023-04-29T10:20:28.225Z,11.0103
2023-04-29T10:21:31.723Z,12.6705
2023-04-29T10:22:31.790Z,12.7433
2023-04-29T10:23:34.914Z,13.5299
2023-04-29T10:24:38.124Z,12.3049
2023-04-29T10:25:38.033Z,12.8360
2023-04-29T10:26:41.165Z,14.3250
2023-04-29T10:27:44.348Z,12.6772
2023-04-29T10:28:47.492Z,10.8276
2023-04-29T10:29:50.628Z,10.1572
2023-04-29T10:30:53.754Z,12.0585
2023-04-29T10:31:56.889Z,12.6236
2023-04-29T10:33:01.763Z,12.9930
2023-04-29T10:34:01.770Z,12.5189
2023-04-29T10:35:04.919Z,11.5685
2023-04-29T10:36:08.014Z,11.4407
2023-04-29T10:37:11.147Z,11.9911
2023-04-29T10:38:14.275Z,12.0475
2023-04-29T10:39:17.419Z,11.3927
2023-04-29T10:40:20.549Z,11.0742
2023-04-29T10:41:23.656Z,12.5557
2023-04-29T10:42:26.809Z,11.6840
2023-04-29T10:43:29.944Z,11.7624
2023-04-29T10:44:29.895Z,11.4489
2023-04-29T10:45:33.035Z,10.9159
2023-04-29T10:46:36.211Z,11.9921
2023-04-29T10:47:39.307Z,10.4789
2023-04-29T10:48:42.431Z,11.3548
2023-04-29T10:49:45.590Z,11.9899
2023-04-29T10:50:48.757Z,12.4664
2023-04-29T10:51:51.872Z,12.0881
2023-04-29T10:52:54.999Z,10.3564
2023-04-29T10:53:58.214Z,10.7461
2023-04-29T10:54:58.156Z,8.1325
2023-04-29T10:56:01.328Z,9.9897
2023-04-29T10:57:01.303Z,8.5094
2023-04-29T10:58:04.473Z,8.9393
2023-04-29T10:59:07.636Z,9.1921
2023-04-29T11:00:10.792Z,10.4463
2023-04-29T11:01:13.942Z,9.7241
2023-04-29T11:02:17.078Z,10.7232
2023-04-29T11:03:20.693Z,9.6052
2023-04-29T11:04:20.732Z,9.3929
2023-04-29T11:05:20.649Z,9.5079
2023-04-29T11:06:23.826Z,8.9238
2023-04-29T11:07:26.979Z,9.0365
2023-04-29T11:08:30.144Z,7.9172
2023-04-29T11:09:33.337Z,9.4705
2023-04-29T11:10:36.502Z,9.0450
2023-04-29T11:11:39.665Z,8.3348
2023-04-29T11:12:42.799Z,9.1884
2023-04-29T11:13:45.957Z,10.9399
2023-04-29T11:14:49.120Z,9.0106
2023-04-29T11:15:49.117Z,10.3995
2023-04-29T11:16:52.347Z,9.0321
2023-04-29T11:17:52.359Z,8.7983
2023-04-29T11:18:55.497Z,8.9578
2023-04-29T11:19:58.691Z,8.9585
2023-04-29T11:21:01.843Z,6.9541
2023-04-29T11:22:05.011Z,8.4440
2023-04-29T11:23:08.172Z,7.9815
2023-04-29T11:24:11.356Z,7.2324
2023-04-29T11:25:14.556Z,8.2535
2023-04-29T11:26:14.516Z,7.3024
2023-04-29T11:27:14.550Z,7.7448
2023-04-29T11:28:17.686Z,7.6441
2023-04-29T11:29:20.890Z,8.2818
2023-04-29T11:30:20.869Z,7.1487
2023-04-29T11:31:24.782Z,7.6083
2023-04-29T11:32:25.771Z,8.5866
2023-04-29T11:33:25.800Z,7.7478
2023-04-29T11:34:28.954Z,7.1857
2023-04-29T11:35:32.143Z,8.3962
2023-04-29T11:36:32.101Z,6.8929
2023-04-29T11:37:35.240Z,9.0372
2023-04-29T11:38:38.400Z,9.9827
2023-04-29T11:39:41.619Z,9.2762
2023-04-29T11:40:44.751Z,8.2418
2023-04-29T11:41:47.936Z,9.9337
2023-04-29T11:42:51.090Z,9.1466
2023-04-29T11:43:54.234Z,8.7066
2023-04-29T11:44:57.408Z,10.5232
2023-04-29T11:46:00.629Z,8.7062
2023-04-29T11:47:03.762Z,9.4878
2023-04-29T11:48:06.949Z,9.8153
2023-04-29T11:49:10.048Z,10.0750
2023-04-29T11:50:13.223Z,9.2081
2023-04-29T11:51:16.354Z,8.8614
2023-04-29T11:52:19.526Z,10.9153
2023-04-29T11:53:22.682Z,9.7068
2023-04-29T11:54:25.944Z,9.3465
2023-04-29T11:55:25.904Z,9.8885
2023-04-29T11:56:29.060Z,9.1303
2023-04-29T11:57:32.244Z,8.8911
2023-04-29T11:58:35.404Z,10.2051
2023-04-29T11:59:38.545Z,9.8497
2023-04-29T12:00:41.830Z,11.4406
2023-04-29T12:01:41.787Z,10.8048
2023-04-29T12:02:45.043Z,10.9112
2023-04-29T12:03:45.399Z,11.7284
2023-04-29T12:04:45.614Z,11.1990
2023-04-29T12:05:45.743Z,9.8713
2023-04-29T12:06:45.669Z,9.6735
2023-04-29T12:07:48.808Z,9.4602
2023-04-29T12:08:51.954Z,10.2393
2023-04-29T12:09:55.114Z,10.2718
2023-04-29T12:10:55.188Z,9.9502
2023-04-29T12:11:55.094Z,9.6274
2023-04-29T12:12:58.279Z,9.2598
2023-04-29T12:14:01.453Z,9.9649
2023-04-29T12:15:04.644Z,8.7332
2023-04-29T12:16:07.778Z,7.9732
2023-04-29T12:17:10.902Z,10.5920
2023-04-29T12:18:14.107Z,10.0293
2023-04-29T12:19:17.285Z,8.5546
2023-04-29T12:20:20.461Z,11.0836
2023-04-29T12:21:23.663Z,10.2869
2023-04-29T12:22:23.622Z,9.0881
2023-04-29T12:23:26.796Z,9.0031
2023-04-29T12:24:29.984Z,10.7511
2023-04-29T12:25:33.159Z,9.8607
2023-04-29T12:26:36.321Z,8.9608
2023-04-29T12:27:39.463Z,10.8952
2023-04-29T12:28:42.590Z,10.8697
2023-04-29T12:29:45.715Z,11.8023
2023-04-29T12:30:48.993Z,11.5988
2023-04-29T12:31:48.994Z,13.1023
2023-04-29T12:32:52.174Z,14.3969
2023-04-29T12:33:55.263Z,12.5948
2023-04-29T12:34:58.360Z,12.1388
2023-04-29T12:36:01.508Z,12.7937
2023-04-29T12:37:01.477Z,14.0675
2023-04-29T12:38:04.611Z,14.1271
2023-04-29T12:39:07.731Z,13.4222
2023-04-29T12:40:10.914Z,15.8008
2023-04-29T12:41:14.043Z,14.1404
2023-04-29T12:42:17.182Z,14.0864
2023-04-29T12:43:20.302Z,15.4932
2023-04-29T12:44:23.575Z,16.0747
2023-04-29T12:45:23.463Z,14.6191